Terminal Aerodrome Forecast
Issued by NWS

Home | Current Version | Previous Version | Text Only | Print | Product List | Glossary On
Versions: 1 2 3 4 5 6 7 8 9 10 11 12 13 14 15 16
000
FTUS46 KSGX 231900 AAA
TAFSNA
TAF AMD
KSNA 232000Z 2320/2418 03020G30KT P6SM BKN250
     FM232200 04012G22KT P6SM SCT250
     FM240000 VRB06KT P6SM FEW250
     FM240300 VRB05KT P6SM FEW250 WS015/04025KT
     FM241300 VRB04KT P6SM FEW250=

USA.gov is the U.S. government's official web portal to all federal, state and local government web resources and services.